Time;durP1;ratioP1;P1;durP2;ratioP2;P2;SDS_P1;SDS_P2;PMS_P1;PMS_P2;Temp;Humidity;BMP_temperature;BMP_pressure;BME280_temperature;BME280_humidity;BME280_pressure;Samples;Min_cycle;Max_cycle;Signal;HPM_P1;HPM_P2
2020/12/12 00:01:18;;;;;;;60.00;28.45;;;;;;;3.36;91.74;99287.72;5053928;28;20065;-67
2020/12/12 00:03:43;;;;;;;61.38;28.55;;;;;;;3.36;92.19;99282.16;5064774;28;20443;-67
2020/12/12 00:06:08;;;;;;;53.90;24.67;;;;;;;3.38;91.90;99282.56;5054817;28;20020;-66
2020/12/12 00:08:34;;;;;;;49.08;24.98;;;;;;;3.40;92.08;99274.66;5054903;28;20416;-66
2020/12/12 00:10:59;;;;;;;46.20;22.63;;;;;;;3.41;92.25;99275.44;5054631;28;20029;-66
2020/12/12 00:13:24;;;;;;;42.63;20.67;;;;;;;3.44;92.09;99282.22;5057000;28;20020;-67
2020/12/12 00:15:50;;;;;;;40.55;19.02;;;;;;;3.42;92.02;99269.50;5057439;28;20032;-67
2020/12/12 00:18:15;;;;;;;44.97;19.90;;;;;;;3.44;92.42;99276.66;5058495;28;20355;-63
2020/12/12 00:20:40;;;;;;;46.35;21.52;;;;;;;3.43;91.89;99273.09;5052286;28;20027;-67
2020/12/12 00:23:06;;;;;;;46.08;22.88;;;;;;;3.42;92.20;99269.50;5058235;28;20435;-66
2020/12/12 00:25:31;;;;;;;52.38;22.92;;;;;;;3.45;92.41;99275.47;5058373;28;20017;-65
2020/12/12 00:27:56;;;;;;;45.70;21.70;;;;;;;3.47;91.96;99275.88;5058337;28;20029;-67
2020/12/12 00:30:21;;;;;;;45.55;21.45;;;;;;;3.49;92.20;99270.75;5058059;28;20365;-63
2020/12/12 00:32:47;;;;;;;42.10;20.13;;;;;;;3.51;91.68;99276.72;5058212;28;20029;-68
2020/12/12 00:35:12;;;;;;;38.13;17.80;;;;;;;3.50;92.14;99273.16;5058102;28;20078;-67
2020/12/12 00:37:37;;;;;;;34.78;17.77;;;;;;;3.51;92.21;99268.38;5058259;28;20052;-67
2020/12/12 00:40:03;;;;;;;38.92;18.02;;;;;;;3.50;92.02;99278.69;5057638;28;20062;-68
2020/12/12 00:42:28;;;;;;;35.72;17.25;;;;;;;3.47;91.95;99267.56;5058260;28;20016;-67
2020/12/12 00:44:53;;;;;;;33.00;17.05;;;;;;;3.48;91.69;99278.28;5058061;28;20025;-66
2020/12/12 00:47:19;;;;;;;38.63;18.23;;;;;;;3.48;92.00;99271.94;5056532;28;20098;-66
2020/12/12 00:49:44;;;;;;;41.72;19.33;;;;;;;3.50;92.16;99272.34;5058048;28;20040;-66
2020/12/12 00:52:10;;;;;;;45.60;20.73;;;;;;;3.52;92.05;99272.75;5058165;28;20131;-67
2020/12/12 00:54:35;;;;;;;51.88;21.75;;;;;;;3.53;92.13;99266.81;5056541;28;20052;-67
2020/12/12 00:57:00;;;;;;;47.70;21.25;;;;;;;3.54;91.74;99262.06;5057792;28;20040;-67
2020/12/12 00:59:26;;;;;;;43.97;19.65;;;;;;;3.54;91.82;99257.31;5057949;28;20108;-63
2020/12/12 01:01:51;;;;;;;49.55;21.45;;;;;;;3.56;92.11;99256.91;5058059;28;20047;-64
2020/12/12 01:04:16;;;;;;;41.42;19.33;;;;;;;3.59;92.14;99247.84;5055969;28;20031;-67
2020/12/12 01:06:45;;;;;;;37.97;18.63;;;;;;;3.61;91.82;99251.84;5043459;28;20404;-67
2020/12/12 01:09:11;;;;;;;36.13;17.98;;;;;;;3.63;91.99;99248.66;5049196;28;20022;-67
2020/12/12 01:11:36;;;;;;;38.75;17.77;;;;;;;3.64;91.94;99233.59;5056263;28;20302;-66
2020/12/12 01:14:01;;;;;;;38.50;17.25;;;;;;;3.65;91.99;99238.75;5057536;28;20040;-67
2020/12/12 01:16:27;;;;;;;34.25;16.55;;;;;;;3.65;91.61;99241.53;5056369;28;20063;-67
2020/12/12 01:18:52;;;;;;;43.85;19.27;;;;;;;3.67;91.87;99236.41;5057132;28;20115;-68
2020/12/12 01:21:17;;;;;;;40.35;19.02;;;;;;;3.69;91.68;99239.59;5056298;28;20060;-66
2020/12/12 01:23:44;;;;;;;43.28;20.00;;;;;;;3.70;91.88;99235.63;5056271;28;20431;-67
2020/12/12 01:26:09;;;;;;;50.65;21.95;;;;;;;3.72;91.72;99227.69;5057300;28;20108;-66
2020/12/12 01:28:35;;;;;;;46.03;20.80;;;;;;;3.74;91.84;99221.75;5057075;28;20516;-64
2020/12/12 01:31:01;;;;;;;42.15;19.75;;;;;;;3.78;92.22;99217.00;5057154;28;20111;-67
2020/12/12 01:33:27;;;;;;;46.05;21.50;;;;;;;3.82;91.77;99217.03;5055931;28;20024;-66
2020/12/12 01:35:52;;;;;;;49.15;23.13;;;;;;;3.83;92.00;99213.88;5056953;28;20036;-64
2020/12/12 01:38:17;;;;;;;48.63;21.95;;;;;;;3.88;91.58;99207.97;5056796;28;20029;-64
2020/12/12 01:40:43;;;;;;;47.45;21.67;;;;;;;3.91;91.71;99214.75;5055746;28;20031;-65
2020/12/12 01:43:09;;;;;;;49.03;20.92;;;;;;;3.94;91.54;99213.97;5056926;28;20428;-61
2020/12/12 01:45:36;;;;;;;49.22;21.92;;;;;;;3.93;91.67;99215.16;5056909;28;20103;-64
2020/12/12 01:48:01;;;;;;;46.88;20.95;;;;;;;3.95;91.29;99216.34;5056575;28;20317;-67
2020/12/12 01:50:27;;;;;;;46.65;20.58;;;;;;;3.95;91.71;99224.69;5056195;28;20031;-64
2020/12/12 01:52:53;;;;;;;43.55;19.42;;;;;;;3.95;91.18;99230.25;5056538;28;20025;-67
2020/12/12 01:55:22;;;;;;;44.40;19.58;;;;;;;3.97;90.98;99236.22;5056496;28;20149;-66
2020/12/12 01:57:49;;;;;;;45.38;19.40;;;;;;;3.96;90.87;99220.72;5055521;28;20023;-65
2020/12/12 02:00:15;;;;;;;43.40;18.48;;;;;;;3.95;90.90;99218.34;5056730;28;20375;-63
2020/12/12 02:02:46;;;;;;;45.38;18.70;;;;;;;3.91;90.64;99226.66;5069201;28;20116;-65
2020/12/12 02:05:38;;;;;;;38.30;18.77;;;;;;;3.90;90.83;99211.16;5056651;28;20021;-68
2020/12/12 02:08:09;;;;;;;32.83;16.02;;;;;;;3.89;90.97;99212.34;5055337;28;20028;-65
2020/12/12 02:10:36;;;;;;;38.30;16.93;;;;;;;3.86;91.03;99217.88;5056470;28;20025;-67
2020/12/12 02:13:02;;;;;;;40.85;17.52;;;;;;;3.88;91.20;99210.75;5056333;28;20339;-66
2020/12/12 02:15:28;;;;;;;36.65;16.65;;;;;;;3.84;90.73;99212.72;5056699;28;20074;-67
2020/12/12 02:17:53;;;;;;;41.92;18.13;;;;;;;3.83;90.93;99213.88;5055842;28;20619;-66
2020/12/12 02:20:18;;;;;;;36.55;16.30;;;;;;;3.81;91.13;99210.69;5056196;28;20028;-66
2020/12/12 02:22:46;;;;;;;41.22;18.52;;;;;;;3.82;91.00;99211.47;5056500;28;20029;-67
2020/12/12 02:25:12;;;;;;;31.10;15.73;;;;;;;3.84;91.28;99204.38;5056040;28;20028;-66
2020/12/12 02:27:37;;;;;;;34.30;15.30;;;;;;;3.86;91.20;99202.00;5056182;28;20029;-64
2020/12/12 02:30:06;;;;;;;32.13;14.35;;;;;;;3.88;90.88;99198.84;5055989;28;20036;-64
2020/12/12 02:32:32;;;;;;;26.20;13.85;;;;;;;3.88;90.67;99204.41;5055989;28;20020;-66
2020/12/12 02:34:57;;;;;;;27.70;14.45;;;;;;;3.85;90.38;99194.84;5054325;28;20416;-66
2020/12/12 02:37:22;;;;;;;27.58;13.50;;;;;;;3.83;90.66;99188.84;5052442;28;20037;-67
2020/12/12 02:39:48;;;;;;;26.38;12.60;;;;;;;3.81;90.61;99194.00;5055760;28;20043;-66
2020/12/12 02:42:13;;;;;;;24.25;12.95;;;;;;;3.81;90.42;99198.78;5055610;28;20048;-66
2020/12/12 02:44:38;;;;;;;24.17;13.68;;;;;;;3.79;90.05;99199.16;5055841;28;20029;-67
2020/12/12 02:47:04;;;;;;;20.80;11.70;;;;;;;3.77;90.22;99186.84;5055535;28;20028;-66
2020/12/12 02:49:29;;;;;;;26.70;13.77;;;;;;;3.81;90.35;99188.44;5055375;28;20029;-66
2020/12/12 02:51:54;;;;;;;26.52;13.73;;;;;;;3.76;90.08;99182.47;5055743;28;20035;-67
2020/12/12 02:54:20;;;;;;;26.52;14.43;;;;;;;3.71;90.21;99178.84;5054635;28;20119;-67
2020/12/12 02:56:45;;;;;;;31.23;14.38;;;;;;;3.71;90.47;99178.06;5055228;28;20033;-66
2020/12/12 02:59:10;;;;;;;29.10;13.88;;;;;;;3.67;90.11;99178.03;5047269;28;20124;-67
2020/12/12 03:01:39;;;;;;;36.28;16.17;;;;;;;3.70;90.54;99170.91;5052667;28;20093;-67
2020/12/12 03:04:04;;;;;;;34.55;16.23;;;;;;;3.69;90.39;99181.22;5054108;28;20029;-65
2020/12/12 03:06:29;;;;;;;33.60;15.05;;;;;;;3.69;90.90;99181.22;5054318;28;20029;-68
2020/12/12 03:08:54;;;;;;;31.10;15.25;;;;;;;3.67;90.79;99188.34;5054181;28;20021;-67
2020/12/12 03:11:20;;;;;;;33.95;16.88;;;;;;;3.65;91.09;99183.19;5055345;28;20029;-67
2020/12/12 03:13:45;;;;;;;38.55;17.17;;;;;;;3.68;91.12;99173.28;5055080;28;20033;-67
2020/12/12 03:16:10;;;;;;;36.80;17.02;;;;;;;3.71;90.98;99173.31;5055398;28;20079;-68
2020/12/12 03:18:36;;;;;;;40.10;18.80;;;;;;;3.70;90.79;99170.91;5055086;28;20032;-68
2020/12/12 03:21:01;;;;;;;43.22;19.95;;;;;;;3.71;91.03;99175.28;5055239;28;20033;-66
2020/12/12 03:23:26;;;;;;;43.53;18.08;;;;;;;3.73;90.93;99175.69;5055249;28;20021;-66
2020/12/12 03:25:52;;;;;;;39.78;19.20;;;;;;;3.73;91.06;99165.38;5054316;28;20321;-67
2020/12/12 03:28:17;;;;;;;44.78;20.00;;;;;;;3.75;90.60;99178.09;5055205;28;20025;-64
2020/12/12 03:30:42;;;;;;;36.15;16.58;;;;;;;3.71;90.73;99178.84;5055187;28;20451;-65
2020/12/12 03:33:08;;;;;;;38.58;17.85;;;;;;;3.75;90.66;99178.88;5054971;28;20308;-66
2020/12/12 03:35:33;;;;;;;43.83;18.60;;;;;;;3.79;90.70;99176.13;5055162;28;20035;-67
2020/12/12 03:37:59;;;;;;;69.65;36.60;;;;;;;3.74;90.02;99182.84;5054052;28;20025;-65
2020/12/12 03:40:25;;;;;;;53.25;28.95;;;;;;;3.72;89.90;99174.09;5055078;28;20040;-67
2020/12/12 03:42:51;;;;;;;41.85;22.67;;;;;;;3.70;90.36;99170.91;5053995;28;20017;-66
2020/12/12 03:45:20;;;;;;;46.83;23.70;;;;;;;3.69;90.31;99174.88;5053994;28;20032;-67
2020/12/12 03:47:50;;;;;;;46.08;21.80;;;;;;;3.67;90.50;99171.69;5056781;28;20052;-65
2020/12/12 03:50:15;;;;;;;46.75;21.17;;;;;;;3.68;90.99;99173.28;5059315;28;20486;-67
2020/12/12 03:52:41;;;;;;;48.75;21.13;;;;;;;3.67;90.94;99166.13;5058785;28;20033;-64
2020/12/12 03:55:07;;;;;;;49.97;20.38;;;;;;;3.64;90.81;99170.47;5059037;28;20400;-66
2020/12/12 03:57:33;;;;;;;44.75;20.15;;;;;;;3.63;91.01;99177.22;5058920;28;20049;-67
2020/12/12 03:59:58;;;;;;;45.17;19.75;;;;;;;3.64;91.50;99172.47;5059082;28;20100;-67
2020/12/12 04:02:24;;;;;;;37.67;18.33;;;;;;;3.64;91.56;99175.25;5057584;28;20028;-67
2020/12/12 04:04:49;;;;;;;45.90;19.92;;;;;;;3.67;91.57;99175.25;5058802;28;20037;-66
2020/12/12 04:07:14;;;;;;;51.13;20.95;;;;;;;3.68;91.33;99168.53;5058697;28;20021;-68
2020/12/12 04:09:40;;;;;;;44.13;19.85;;;;;;;3.67;91.01;99171.69;5057623;28;20078;-66
2020/12/12 04:12:05;;;;;;;48.38;21.08;;;;;;;3.65;91.31;99174.06;5057681;28;20021;-65
2020/12/12 04:14:31;;;;;;;55.60;23.80;;;;;;;3.71;91.77;99178.06;5058803;28;20047;-66
2020/12/12 04:16:56;;;;;;;45.17;20.30;;;;;;;3.70;91.46;99174.47;5057999;28;20025;-66
2020/12/12 04:19:21;;;;;;;47.90;21.10;;;;;;;3.70;92.15;99182.03;5057719;28;20321;-65
2020/12/12 04:21:47;;;;;;;53.55;21.60;;;;;;;3.68;91.86;99179.63;5057319;28;20021;-65
2020/12/12 04:24:12;;;;;;;44.08;18.50;;;;;;;3.69;91.22;99186.00;5058462;28;20060;-64
2020/12/12 04:26:38;;;;;;;44.55;19.90;;;;;;;3.65;91.31;99187.94;5058365;28;20029;-61
2020/12/12 04:29:03;;;;;;;45.08;20.80;;;;;;;3.62;91.59;99185.94;5058426;28;20108;-65
2020/12/12 04:31:47;;;;;;;47.20;21.48;;;;;;;3.61;91.58;99178.78;5057892;28;20017;-67
2020/12/12 04:34:13;;;;;;;48.65;22.48;;;;;;;3.61;91.66;99184.34;5045573;28;20055;-66
2020/12/12 04:36:38;;;;;;;49.22;21.55;;;;;;;3.63;91.71;99182.78;5057124;28;20103;-67
2020/12/12 04:39:03;;;;;;;39.10;17.10;;;;;;;3.66;90.98;99186.75;5058130;28;20036;-67
2020/12/12 04:41:31;;;;;;;38.40;18.13;;;;;;;3.64;90.88;99175.25;5057196;28;20060;-67
2020/12/12 04:43:57;;;;;;;41.80;18.52;;;;;;;3.60;90.92;99174.41;5057819;28;20028;-65
2020/12/12 04:46:22;;;;;;;33.45;15.95;;;;;;;3.64;90.82;99189.94;5057543;28;20146;-67
2020/12/12 04:48:48;;;;;;;31.75;15.75;;;;;;;3.65;90.80;99187.94;5058038;28;20323;-65
2020/12/12 04:51:13;;;;;;;33.90;15.90;;;;;;;3.67;90.54;99193.91;5056854;28;20379;-64
2020/12/12 04:53:40;;;;;;;30.75;15.00;;;;;;;3.68;89.86;99196.31;5058131;28;20036;-67
2020/12/12 04:56:06;;;;;;;26.95;15.18;;;;;;;3.66;90.17;99192.31;5057629;28;20045;-67
2020/12/12 04:58:37;;;;;;;23.02;13.80;;;;;;;3.65;89.82;99194.31;5055652;28;20286;-66
2020/12/12 05:01:02;;;;;;;21.75;12.75;;;;;;;3.66;89.36;99193.13;5056076;28;20021;-66
2020/12/12 05:03:28;;;;;;;23.45;12.20;;;;;;;3.69;89.03;99197.09;5057874;28;20036;-65
2020/12/12 05:05:53;;;;;;;25.42;12.57;;;;;;;3.66;88.89;99193.13;5057674;28;20431;-65
2020/12/12 05:08:19;;;;;;;23.90;12.63;;;;;;;3.61;88.80;99189.91;5057405;28;20347;-67
2020/12/12 05:10:51;;;;;;;21.67;11.35;;;;;;;3.62;88.49;99202.63;5056613;28;20385;-67
2020/12/12 05:13:25;;;;;;;23.90;13.52;;;;;;;3.57;89.18;99209.34;5057518;28;20070;-63
2020/12/12 05:15:52;;;;;;;22.25;11.80;;;;;;;3.59;88.97;99204.19;5056995;28;20100;-67
2020/12/12 05:18:18;;;;;;;19.90;10.10;;;;;;;3.60;89.00;99197.44;5057350;28;20286;-65
2020/12/12 05:20:44;;;;;;;16.80;8.77;;;;;;;3.59;88.70;99203.38;5057741;28;20025;-65
2020/12/12 05:23:23;;;;;;;18.30;10.18;;;;;;;3.56;89.04;99199.41;5057192;28;20112;-67
2020/12/12 05:25:50;;;;;;;19.65;9.73;;;;;;;3.54;89.03;99198.97;5057337;28;20455;-67
2020/12/12 05:28:17;;;;;;;19.80;10.40;;;;;;;3.53;89.15;99205.69;5057122;28;20085;-67
2020/12/12 05:30:44;;;;;;;21.55;11.13;;;;;;;3.51;89.24;99199.72;5057024;28;20059;-66
2020/12/12 05:33:12;;;;;;;17.85;9.57;;;;;;;3.50;89.71;99200.91;5057630;28;20047;-66
2020/12/12 05:35:37;;;;;;;16.98;10.15;;;;;;;3.52;89.44;99203.31;5057236;28;20022;-66
2020/12/12 05:38:05;;;;;;;15.25;9.02;;;;;;;3.52;89.75;99197.75;5060650;28;20441;-67
2020/12/12 05:40:31;;;;;;;18.38;9.82;;;;;;;3.52;89.89;99197.75;5047532;28;20048;-68
2020/12/12 05:43:01;;;;;;;21.23;11.68;;;;;;;3.55;89.85;99191.41;5053476;28;20074;-67
2020/12/12 05:45:26;;;;;;;18.30;10.70;;;;;;;3.57;90.23;99194.66;5052896;28;20055;-68
2020/12/12 05:47:52;;;;;;;16.25;10.45;;;;;;;3.56;89.59;99193.84;5056613;28;20404;-65
2020/12/12 05:50:17;;;;;;;14.60;8.93;;;;;;;3.55;89.70;99188.66;5057017;28;20021;-67
2020/12/12 05:52:42;;;;;;;14.98;10.10;;;;;;;3.55;90.01;99194.19;5056919;28;20152;-62
2020/12/12 05:55:08;;;;;;;17.17;9.70;;;;;;;3.57;89.91;99189.09;5055562;28;20347;-67
2020/12/12 05:57:36;;;;;;;17.70;10.00;;;;;;;3.61;90.26;99189.91;5056530;28;20021;-68
2020/12/12 06:00:05;;;;;;;19.98;11.30;;;;;;;3.57;89.63;99189.88;5056528;28;20043;-66
2020/12/12 06:02:35;;;;;;;20.48;11.95;;;;;;;3.54;89.96;99190.63;5052378;28;20102;-68
2020/12/12 06:05:04;;;;;;;21.90;12.15;;;;;;;3.54;89.85;99195.38;5056486;28;20025;-67
2020/12/12 06:07:31;;;;;;;26.83;12.77;;;;;;;3.53;90.06;99193.78;5046767;28;20021;-67
2020/12/12 06:09:59;;;;;;;25.83;13.10;;;;;;;3.55;90.19;99192.22;5055924;28;20044;-66
2020/12/12 06:12:24;;;;;;;31.23;14.35;;;;;;;3.57;90.16;99197.41;5046541;28;20029;-65
2020/12/12 06:14:56;;;;;;;27.13;13.82;;;;;;;3.59;90.48;99189.50;5046161;28;20028;-67
2020/12/12 06:18:03;;;;;;;24.98;12.75;;;;;;;3.62;90.21;99188.72;5056016;28;20025;-65
2020/12/12 06:20:30;;;;;;;22.25;11.73;;;;;;;3.63;90.35;99193.09;5048771;28;20033;-68
2020/12/12 06:22:57;;;;;;;24.10;11.70;;;;;;;3.63;90.21;99193.09;5056097;28;20028;-67
2020/12/12 06:25:23;;;;;;;29.80;13.18;;;;;;;3.61;89.98;99185.16;5050577;28;20486;-66
2020/12/12 06:27:53;;;;;;;18.83;9.65;;;;;;;3.59;89.95;99190.28;5042874;28;20055;-67
2020/12/12 06:30:21;;;;;;;17.88;9.65;;;;;;;3.59;89.95;99187.50;5055885;28;20424;-68
2020/12/12 06:32:46;;;;;;;17.13;9.90;;;;;;;3.63;90.39;99187.53;5046069;28;20041;-64
2020/12/12 06:35:15;;;;;;;20.70;9.93;;;;;;;3.64;90.13;99194.69;5055426;28;20360;-66
2020/12/12 06:37:41;;;;;;;17.35;8.82;;;;;;;3.65;90.31;99187.94;5055900;28;20028;-65
2020/12/12 06:40:10;;;;;;;17.90;9.70;;;;;;;3.69;89.83;99191.53;5046895;28;20029;-66
2020/12/12 06:42:38;;;;;;;16.95;10.25;;;;;;;3.66;90.29;99189.53;5046983;28;20017;-63
2020/12/12 06:45:27;;;;;;;19.42;11.18;;;;;;;3.63;90.08;99185.56;5054205;28;20025;-67
2020/12/12 06:47:54;;;;;;;15.38;8.48;;;;;;;3.66;90.48;99189.53;5047351;28;20401;-66
2020/12/12 06:50:32;;;;;;;14.15;8.40;;;;;;;3.66;90.27;99186.75;5054605;28;20032;-67
2020/12/12 06:52:58;;;;;;;13.50;8.25;;;;;;;3.70;89.96;99190.38;5054446;28;20025;-66
2020/12/12 06:55:24;;;;;;;12.07;7.78;;;;;;;3.65;90.21;99191.53;5054621;28;20055;-66
2020/12/12 06:57:56;;;;;;;15.27;8.13;;;;;;;3.69;89.92;99192.34;5054196;28;20112;-67
2020/12/12 07:00:30;;;;;;;11.13;6.88;;;;;;;3.72;90.12;99188.78;5057681;28;20073;-67
2020/12/12 07:03:04;;;;;;;13.73;7.45;;;;;;;3.77;89.36;99187.63;5072141;28;20514;-67
2020/12/12 07:05:32;;;;;;;16.33;9.27;;;;;;;3.76;89.94;99179.69;5073966;28;20016;-65
2020/12/12 07:08:03;;;;;;;20.08;11.43;;;;;;;3.77;89.96;99182.06;5073511;28;20020;-67
2020/12/12 07:10:30;;;;;;;16.23;8.95;;;;;;;3.77;89.75;99184.06;5074423;28;20021;-66
2020/12/12 07:12:57;;;;;;;14.48;8.98;;;;;;;3.79;89.61;99179.69;5073621;28;20316;-67
2020/12/12 07:15:22;;;;;;;25.25;11.38;;;;;;;3.75;89.60;99178.88;5055452;28;20404;-66
2020/12/12 07:17:48;;;;;;;15.63;9.80;;;;;;;3.72;90.23;99174.91;5054527;28;20025;-67
2020/12/12 07:20:13;;;;;;;13.88;8.45;;;;;;;3.71;90.13;99183.63;5056195;28;20021;-67
2020/12/12 07:22:38;;;;;;;13.63;9.77;;;;;;;3.69;90.25;99184.00;5073434;28;20040;-68
2020/12/12 07:25:05;;;;;;;11.75;7.68;;;;;;;3.70;90.33;99182.03;5071609;28;20029;-67
2020/12/12 07:27:32;;;;;;;19.50;12.85;;;;;;;3.71;90.63;99181.63;5068238;28;20025;-66
2020/12/12 07:29:57;;;;;;;17.55;11.50;;;;;;;3.76;91.11;99188.00;5054892;28;20371;-67
2020/12/12 07:32:23;;;;;;;14.10;8.15;;;;;;;3.78;90.99;99186.44;5055075;28;20025;-68
2020/12/12 07:34:48;;;;;;;13.65;8.25;;;;;;;3.72;90.32;99188.78;5050562;28;20321;-66
2020/12/12 07:37:14;;;;;;;14.13;8.55;;;;;;;3.78;90.59;99194.78;5054433;28;20033;-67
2020/12/12 07:39:41;;;;;;;15.38;9.50;;;;;;;3.79;90.75;99185.25;5054950;28;20021;-67
2020/12/12 07:42:10;;;;;;;17.63;9.18;;;;;;;3.78;90.81;99183.66;5054854;28;20086;-64
2020/12/12 07:44:39;;;;;;;13.85;8.05;;;;;;;3.80;90.80;99178.50;5055053;28;20293;-66
2020/12/12 07:47:07;;;;;;;14.10;9.43;;;;;;;3.80;90.62;99180.50;5055361;28;20033;-66
2020/12/12 07:49:34;;;;;;;23.33;13.23;;;;;;;3.79;91.01;99174.13;5053942;28;20025;-66
2020/12/12 07:52:03;;;;;;;22.23;11.52;;;;;;;3.87;91.15;99175.81;5055129;28;20422;-67
2020/12/12 07:54:38;;;;;;;40.08;19.60;;;;;;;3.93;90.73;99168.69;5055005;28;20489;-66
2020/12/12 07:57:06;;;;;;;30.75;16.90;;;;;;;3.92;90.90;99166.28;5054988;28;20306;-67
2020/12/12 07:59:32;;;;;;;24.90;14.02;;;;;;;3.95;90.85;99169.09;5054779;28;20017;-66
2020/12/12 08:02:02;;;;;;;20.73;10.60;;;;;;;3.98;90.80;99167.53;5054245;28;20028;-65
2020/12/12 08:04:28;;;;;;;21.77;13.18;;;;;;;4.00;91.08;99167.94;5054851;28;20044;-67
2020/12/12 08:06:53;;;;;;;14.70;9.15;;;;;;;4.02;90.60;99173.91;5054912;28;20057;-69
2020/12/12 08:09:25;;;;;;;17.95;9.77;;;;;;;4.00;90.47;99168.72;5052899;28;20107;-65
2020/12/12 08:12:01;;;;;;;18.52;9.20;;;;;;;4.04;91.17;99168.75;5053741;28;20032;-65
2020/12/12 08:14:29;;;;;;;18.73;9.90;;;;;;;4.08;90.86;99165.97;5061102;28;20028;-61
2020/12/12 08:16:57;;;;;;;26.23;13.98;;;;;;;4.09;91.14;99170.34;5063569;28;20050;-65
2020/12/12 08:19:23;;;;;;;17.38;9.43;;;;;;;4.07;90.63;99175.50;5045883;28;20329;-67
2020/12/12 08:21:51;;;;;;;19.55;10.80;;;;;;;4.09;91.15;99164.78;5041817;28;20021;-63
2020/12/12 08:24:18;;;;;;;15.63;9.45;;;;;;;4.12;91.36;99169.59;5051053;28;20031;-65
2020/12/12 08:26:44;;;;;;;16.08;9.65;;;;;;;4.13;91.62;99172.00;5054616;28;20029;-66
2020/12/12 08:29:09;;;;;;;16.35;9.65;;;;;;;4.13;91.64;99166.44;5054529;28;20035;-64
2020/12/12 08:31:39;;;;;;;17.23;9.80;;;;;;;4.18;91.58;99182.75;5054444;28;20047;-63
2020/12/12 08:34:07;;;;;;;18.15;10.13;;;;;;;4.17;91.45;99177.56;5058871;28;20367;-66
2020/12/12 08:36:32;;;;;;;21.75;10.38;;;;;;;4.16;92.19;99175.97;5065149;28;20110;-65
2020/12/12 08:39:00;;;;;;;19.38;9.32;;;;;;;4.15;91.97;99179.94;5068815;28;20061;-66
2020/12/12 08:41:39;;;;;;;19.30;11.90;;;;;;;4.26;92.03;99176.03;5058095;28;20056;-65
2020/12/12 08:44:06;;;;;;;23.50;11.10;;;;;;;4.31;91.60;99183.19;5057673;28;20094;-66
2020/12/12 08:46:32;;;;;;;21.85;12.20;;;;;;;4.34;91.64;99176.84;5058088;28;20039;-66
2020/12/12 08:48:58;;;;;;;31.85;16.08;;;;;;;4.35;91.28;99182.00;5058080;28;20106;-68
2020/12/12 08:51:27;;;;;;;27.17;15.80;;;;;;;4.35;91.82;99184.00;5057955;28;20052;-67
2020/12/12 08:53:53;;;;;;;25.27;14.27;;;;;;;4.34;91.38;99182.41;5058253;28;20412;-68
2020/12/12 08:56:22;;;;;;;25.02;15.43;;;;;;;4.33;91.72;99181.59;5057742;28;20055;-66
2020/12/12 08:59:05;;;;;;;26.75;14.95;;;;;;;4.33;91.76;99186.38;5055493;28;20044;-68
2020/12/12 09:01:39;;;;;;;47.47;24.27;;;;;;;4.31;91.86;99197.91;5057764;28;20732;-68
2020/12/12 09:04:07;;;;;;;35.95;19.23;;;;;;;4.29;92.29;99197.50;5049000;28;20036;-66
2020/12/12 09:06:41;;;;;;;33.42;15.32;;;;;;;4.31;92.30;99192.31;5055767;28;20151;-69
2020/12/12 09:09:16;;;;;;;23.67;12.82;;;;;;;4.33;92.39;99192.75;5057540;28;20033;-67
2020/12/12 09:11:45;;;;;;;23.48;13.63;;;;;;;4.39;92.75;99189.59;5057530;28;20078;-69
2020/12/12 09:14:11;;;;;;;23.58;13.93;;;;;;;4.33;92.22;99192.75;5057518;28;20067;-68
2020/12/12 09:16:38;;;;;;;27.17;13.32;;;;;;;4.38;92.09;99199.91;5057690;28;20020;-67
2020/12/12 09:19:05;;;;;;;24.75;12.93;;;;;;;4.43;92.66;99194.00;5057717;28;20029;-66
2020/12/12 09:21:34;;;;;;;24.00;11.20;;;;;;;4.46;92.50;99196.00;5056124;28;20032;-70
2020/12/12 09:23:59;;;;;;;20.33;11.60;;;;;;;4.51;92.17;99194.81;5056369;28;20021;-68
2020/12/12 09:26:25;;;;;;;24.92;12.82;;;;;;;4.48;91.86;99190.84;5072435;28;20052;-67
2020/12/12 09:28:50;;;;;;;21.92;11.73;;;;;;;4.47;91.89;99185.66;5064234;28;20081;-69
2020/12/12 09:31:18;;;;;;;25.77;12.43;;;;;;;4.45;92.35;99188.84;5061469;28;20029;-69
2020/12/12 09:33:43;;;;;;;28.00;14.80;;;;;;;4.45;92.06;99186.06;5065511;28;20452;-68
2020/12/12 09:36:09;;;;;;;21.38;11.20;;;;;;;4.51;92.28;99183.69;5074057;28;20169;-68
2020/12/12 09:38:35;;;;;;;24.73;13.35;;;;;;;4.53;92.18;99187.66;5061401;28;20028;-68
2020/12/12 09:41:00;;;;;;;28.15;14.63;;;;;;;4.56;92.36;99184.09;5056763;28;20297;-68
2020/12/12 09:43:26;;;;;;;31.33;15.77;;;;;;;4.57;92.57;99180.13;5057059;28;20107;-67
2020/12/12 09:45:51;;;;;;;29.00;12.98;;;;;;;4.57;92.51;99180.13;5055643;28;20432;-67
2020/12/12 09:48:16;;;;;;;24.55;12.52;;;;;;;4.59;92.80;99177.75;5056481;28;20032;-68
2020/12/12 09:50:42;;;;;;;28.02;13.00;;;;;;;4.59;92.29;99177.75;5056546;28;20400;-68
2020/12/12 09:53:10;;;;;;;25.77;12.90;;;;;;;4.58;92.35;99178.94;5056733;28;20469;-68
2020/12/12 09:55:37;;;;;;;21.42;11.88;;;;;;;4.60;92.74;99173.78;5056610;28;20180;-68
2020/12/12 09:58:09;;;;;;;24.50;11.20;;;;;;;4.62;92.83;99174.19;5056160;28;20028;-66
2020/12/12 10:00:36;;;;;;;24.73;12.50;;;;;;;4.63;92.75;99167.41;5056549;28;20025;-67
2020/12/12 10:03:02;;;;;;;40.38;13.15;;;;;;;4.63;92.71;99161.84;5056099;28;20037;-68
2020/12/12 10:05:27;;;;;;;30.05;13.88;;;;;;;4.65;92.58;99167.81;5056541;28;20319;-68
2020/12/12 10:07:54;;;;;;;31.67;14.18;;;;;;;4.68;92.95;99165.47;5057449;28;20024;-68
2020/12/12 10:10:20;;;;;;;29.42;12.35;;;;;;;4.73;92.91;99167.88;5056371;28;20056;-65
2020/12/12 10:12:45;;;;;;;27.23;12.30;;;;;;;4.71;93.03;99168.25;5042545;28;20053;-67
2020/12/12 10:15:10;;;;;;;24.85;11.82;;;;;;;4.70;92.79;99163.09;5055771;28;20051;-67
2020/12/12 10:17:36;;;;;;;29.95;14.43;;;;;;;4.72;92.59;99158.72;5056244;28;20442;-67
2020/12/12 10:20:01;;;;;;;39.78;17.90;;;;;;;4.80;92.95;99162.31;5055603;28;20021;-67
2020/12/12 10:22:26;;;;;;;54.05;28.35;;;;;;;4.83;92.88;99156.75;5056226;28;20079;-69
2020/12/12 10:24:52;;;;;;;34.85;16.58;;;;;;;4.88;92.68;99164.72;5063140;28;20323;-67
2020/12/12 10:27:19;;;;;;;26.33;13.90;;;;;;;4.91;92.40;99160.34;5066252;28;20021;-66
2020/12/12 10:29:44;;;;;;;27.20;14.75;;;;;;;4.93;92.01;99158.78;5066114;28;20037;-65
2020/12/12 10:32:09;;;;;;;30.48;13.98;;;;;;;4.94;92.26;99165.16;5066489;28;20024;-67
2020/12/12 10:34:34;;;;;;;27.05;14.18;;;;;;;4.92;91.78;99173.88;5063771;28;20306;-69
2020/12/12 10:37:00;;;;;;;29.80;15.20;;;;;;;4.94;92.00;99170.72;5056857;28;20155;-66
2020/12/12 10:39:29;;;;;;;29.95;15.63;;;;;;;4.94;91.98;99165.94;5057790;28;20404;-68
2020/12/12 10:41:54;;;;;;;36.65;18.58;;;;;;;4.93;92.14;99164.34;5050944;28;20025;-67
2020/12/12 10:44:19;;;;;;;34.95;17.70;;;;;;;4.92;91.72;99170.28;5048881;28;20039;-68
2020/12/12 10:46:45;;;;;;;40.08;22.15;;;;;;;4.86;92.13;99169.88;5055913;28;20068;-69
2020/12/12 10:49:10;;;;;;;31.80;19.60;;;;;;;4.85;92.27;99173.84;5054360;28;20074;-68
2020/12/12 10:51:42;;;;;;;32.60;17.15;;;;;;;4.87;92.54;99176.25;5055812;28;20302;-64
2020/12/12 10:54:07;;;;;;;40.63;19.65;;;;;;;4.91;92.53;99171.47;5056101;28;20037;-68
2020/12/12 10:56:32;;;;;;;37.85;17.92;;;;;;;4.93;92.79;99169.09;5055652;28;20091;-66
2020/12/12 10:58:58;;;;;;;31.13;17.20;;;;;;;4.93;92.80;99171.88;5066981;28;20082;-66
2020/12/12 11:01:23;;;;;;;32.90;18.05;;;;;;;4.95;93.25;99172.31;5057547;28;20321;-67
2020/12/12 11:03:48;;;;;;;43.88;21.67;;;;;;;4.99;92.65;99167.53;5050077;28;20083;-66
2020/12/12 11:06:13;;;;;;;33.38;17.08;;;;;;;5.04;93.08;99174.69;5055174;28;20155;-66
2020/12/12 11:08:39;;;;;;;30.75;16.23;;;;;;;5.02;92.54;99168.72;5055627;28;20044;-65
2020/12/12 11:11:04;;;;;;;27.95;15.00;;;;;;;5.06;92.37;99177.88;5057561;28;20071;-66
2020/12/12 11:13:29;;;;;;;25.67;14.30;;;;;;;5.08;92.10;99170.72;5050989;28;20032;-65
2020/12/12 11:15:55;;;;;;;29.40;15.55;;;;;;;5.09;92.17;99169.53;5059529;28;20095;-67
2020/12/12 11:18:20;;;;;;;28.67;15.70;;;;;;;5.11;92.42;99167.16;5063669;28;20036;-69
2020/12/12 11:20:47;;;;;;;27.33;16.42;;;;;;;5.11;92.41;99156.00;5072547;28;20029;-69
2020/12/12 11:23:13;;;;;;;29.35;16.00;;;;;;;5.12;92.23;99165.97;5068357;28;20023;-68
2020/12/12 11:25:38;;;;;;;32.22;15.75;;;;;;;5.13;92.36;99170.34;5073277;28;20374;-67